Garfield Heights, Ohio
Current Conditions -  °F | °C
As of 1:53 AM on Sunday 23 Nov 2014 (Local Time) from KBKL Reporting Station
Overcast Overcast  
Wind Chill: 51°   Ceiling: 4100
Heat Index: 51°   Visibility: 10mi
Dew Point: 35°   Wind: 16mph
Humidity: 54%   Direction: 180°S
Pressure: 30.01"   Gusts: NA
Location:  41.42°N, 81.6°W
Report Text: KBKL 230653Z AUTO 18014KT 10SM OVC041 11/02 A3001 RMK AO2 SLP164 T01060017
Loading
Personal Weather Stations






























Interactive Weather Map New forecast layout! Learn more

10-Day Weather Forecast

Advertisements
Track Severe Weather on mobile